LIML/LIN METAR and TAF weather

Enter ICAO airport designator
Station Type Date Time Source
LIML METAR 2021/07/26 11:50 UTC NOAA

LIML 261150Z 03012KT 5000 -TSRA SCT015CB BKN045 20/15 Q1013 RERA NOSIG


Station Type Date Time Source
LIML Decoded METAR 2021/07/26 11:50 UTC NOAA

Milano / Linate, Italy (LIML) 45-26N 009-17E 103M
Jul 26, 2021 - 07:50 AM EDT / 2021.07.26 1150 UTC
Wind: from the NNE (030 degrees) at 14 MPH (12 KT):0
Visibility: 3 mile(s):0
Sky conditions: mostly cloudy
Weather: light rain with thunder; Cumulonimbus clouds observed
Temperature: 68 F (20 C)
Dew Point: 59 F (15 C)
Relative Humidity: 72%
Pressure (altimeter): 29.91 in. Hg (1013 hPa)
ob: LIML 261150Z 03012KT 5000 -TSRA SCT015CB BKN045 20/15 Q1013 RERA NOSIG
cycle: 12

Station Type Date Time Source
LIML TAF 2021/07/26 12:21 UTC NOAA

TAF TAF LIML 261100Z 2612/2712 VRB05KT 9999 BKN060
TEMPO 2612/2702 4000 TSRA

Example: see airport list